<?xml version="1.0" encoding="UTF-8" standalone="no" ?>
<gpx xmlns="http://www.topografix.com/GPX/1/1" xmlns:xsi="http://www.w3.org/2001/XMLSchema-instance" xsi:schemaLocation="http://www.topografix.com/GPX/1/1 http://www.topografix.com/GPX/1/1/gpx.xsd" version="1.1" creator="VisuGPX - https://www.visugpx.com">
  <metadata>
    <name>Maroc 2018 - Trajet complet</name>
    <desc><![CDATA[Maroc 2018 - Trajet complet de tassa ouirgane au Toubkal et retour à Imlil]]></desc>
  </metadata>
  <trk>
    <name><![CDATA[2018-06-21 15:13:16]]></name>
    <trkseg>
      <trkpt lat="31.12593" lon="-7.91976">
        <ele>1913.23</ele>
        <time>2018-06-21T13:26:06Z</time>
      </trkpt>
      <trkpt lat="31.12599" lon="-7.91975">
        <ele>1913.27</ele>
        <time>2018-06-21T13:26:09Z</time>
      </trkpt>
      <trkpt lat="31.12669" lon="-7.91988">
        <ele>1915.12</ele>
        <time>2018-06-21T13:27:09Z</time>
      </trkpt>
      <trkpt lat="31.12724" lon="-7.91969">
        <ele>1919.19</ele>
        <time>2018-06-21T13:28:09Z</time>
      </trkpt>
      <trkpt lat="31.12739" lon="-7.91988">
        <ele>1919.03</ele>
        <time>2018-06-21T13:29:09Z</time>
      </trkpt>
      <trkpt lat="31.12715" lon="-7.91963">
        <ele>1920.23</ele>
        <time>2018-06-21T13:30:09Z</time>
      </trkpt>
      <trkpt lat="31.12717" lon="-7.91964">
        <ele>1919.6</ele>
        <time>2018-06-21T13:31:09Z</time>
      </trkpt>
      <trkpt lat="31.12724" lon="-7.91975">
        <ele>1919.68</ele>
        <time>2018-06-21T13:32:09Z</time>
      </trkpt>
      <trkpt lat="31.12724" lon="-7.91975">
        <ele>1919.72</ele>
        <time>2018-06-21T13:33:09Z</time>
      </trkpt>
      <trkpt lat="31.12712" lon="-7.91967">
        <ele>1919.67</ele>
        <time>2018-06-21T13:34:09Z</time>
      </trkpt>
      <trkpt lat="31.12713" lon="-7.91965">
        <ele>1919.93</ele>
        <time>2018-06-21T13:35:09Z</time>
      </trkpt>
      <trkpt lat="31.12725" lon="-7.91975">
        <ele>1919.36</ele>
        <time>2018-06-21T13:36:09Z</time>
      </trkpt>
      <trkpt lat="31.12712" lon="-7.91974">
        <ele>1919.36</ele>
        <time>2018-06-21T13:37:09Z</time>
      </trkpt>
      <trkpt lat="31.12721" lon="-7.9197">
        <ele>1919.84</ele>
        <time>2018-06-21T13:38:09Z</time>
      </trkpt>
      <trkpt lat="31.12722" lon="-7.91977">
        <ele>1920.12</ele>
        <time>2018-06-21T13:39:10Z</time>
      </trkpt>
      <trkpt lat="31.12727" lon="-7.91979">
        <ele>1919.65</ele>
        <time>2018-06-21T13:40:10Z</time>
      </trkpt>
      <trkpt lat="31.1272" lon="-7.91982">
        <ele>1919.83</ele>
        <time>2018-06-21T13:41:10Z</time>
      </trkpt>
      <trkpt lat="31.12718" lon="-7.91974">
        <ele>1920.36</ele>
        <time>2018-06-21T13:42:10Z</time>
      </trkpt>
      <trkpt lat="31.12728" lon="-7.91972">
        <ele>1919.96</ele>
        <time>2018-06-21T13:43:10Z</time>
      </trkpt>
      <trkpt lat="31.12715" lon="-7.91982">
        <ele>1920.57</ele>
        <time>2018-06-21T13:44:11Z</time>
      </trkpt>
      <trkpt lat="31.12724" lon="-7.91979">
        <ele>1920.39</ele>
        <time>2018-06-21T13:45:11Z</time>
      </trkpt>
      <trkpt lat="31.12716" lon="-7.91983">
        <ele>1920.08</ele>
        <time>2018-06-21T13:46:12Z</time>
      </trkpt>
      <trkpt lat="31.12754" lon="-7.91972">
        <ele>1919.4</ele>
        <time>2018-06-21T13:47:12Z</time>
      </trkpt>
      <trkpt lat="31.12728" lon="-7.91987">
        <ele>1919.86</ele>
        <time>2018-06-21T13:48:12Z</time>
      </trkpt>
      <trkpt lat="31.12773" lon="-7.92022">
        <ele>1917.28</ele>
        <time>2018-06-21T13:49:12Z</time>
      </trkpt>
      <trkpt lat="31.12866" lon="-7.92056">
        <ele>1913.01</ele>
        <time>2018-06-21T13:50:14Z</time>
      </trkpt>
      <trkpt lat="31.12916" lon="-7.92088">
        <ele>1914.77</ele>
        <time>2018-06-21T13:51:14Z</time>
      </trkpt>
      <trkpt lat="31.12982" lon="-7.9213">
        <ele>1920.06</ele>
        <time>2018-06-21T13:52:14Z</time>
      </trkpt>
      <trkpt lat="31.13057" lon="-7.92135">
        <ele>1925.59</ele>
        <time>2018-06-21T13:53:14Z</time>
      </trkpt>
      <trkpt lat="31.13123" lon="-7.92189">
        <ele>1925.85</ele>
        <time>2018-06-21T13:54:14Z</time>
      </trkpt>
      <trkpt lat="31.1321" lon="-7.92216">
        <ele>1928.32</ele>
        <time>2018-06-21T13:55:14Z</time>
      </trkpt>
      <trkpt lat="31.13275" lon="-7.92218">
        <ele>1931.68</ele>
        <time>2018-06-21T13:56:14Z</time>
      </trkpt>
      <trkpt lat="31.13263" lon="-7.9231">
        <ele>1924.19</ele>
        <time>2018-06-21T13:57:14Z</time>
      </trkpt>
      <trkpt lat="31.13234" lon="-7.92391">
        <ele>1914.33</ele>
        <time>2018-06-21T13:58:14Z</time>
      </trkpt>
      <trkpt lat="31.13251" lon="-7.92398">
        <ele>1903.98</ele>
        <time>2018-06-21T13:59:14Z</time>
      </trkpt>
      <trkpt lat="31.13299" lon="-7.92341">
        <ele>1894.14</ele>
        <time>2018-06-21T14:00:14Z</time>
      </trkpt>
      <trkpt lat="31.13342" lon="-7.92279">
        <ele>1884.38</ele>
        <time>2018-06-21T14:01:14Z</time>
      </trkpt>
      <trkpt lat="31.13365" lon="-7.92209">
        <ele>1875.95</ele>
        <time>2018-06-21T14:02:14Z</time>
      </trkpt>
      <trkpt lat="31.13376" lon="-7.92287">
        <ele>1865.21</ele>
        <time>2018-06-21T14:03:14Z</time>
      </trkpt>
      <trkpt lat="31.13356" lon="-7.92367">
        <ele>1854.6</ele>
        <time>2018-06-21T14:04:14Z</time>
      </trkpt>
      <trkpt lat="31.13329" lon="-7.92446">
        <ele>1846.43</ele>
        <time>2018-06-21T14:05:14Z</time>
      </trkpt>
      <trkpt lat="31.13326" lon="-7.92519">
        <ele>1840.94</ele>
        <time>2018-06-21T14:06:14Z</time>
      </trkpt>
      <trkpt lat="31.13331" lon="-7.92602">
        <ele>1836.23</ele>
        <time>2018-06-21T14:07:14Z</time>
      </trkpt>
      <trkpt lat="31.13341" lon="-7.9268">
        <ele>1827.99</ele>
        <time>2018-06-21T14:08:14Z</time>
      </trkpt>
      <trkpt lat="31.13366" lon="-7.9276">
        <ele>1823.63</ele>
        <time>2018-06-21T14:09:14Z</time>
      </trkpt>
      <trkpt lat="31.13416" lon="-7.92822">
        <ele>1819.08</ele>
        <time>2018-06-21T14:10:14Z</time>
      </trkpt>
      <trkpt lat="31.13419" lon="-7.92801">
        <ele>1812.1</ele>
        <time>2018-06-21T14:11:14Z</time>
      </trkpt>
      <trkpt lat="31.13417" lon="-7.92724">
        <ele>1803.64</ele>
        <time>2018-06-21T14:12:14Z</time>
      </trkpt>
      <trkpt lat="31.13449" lon="-7.9281">
        <ele>1803.28</ele>
        <time>2018-06-21T14:13:16Z</time>
      </trkpt>
    </trkseg>
  </trk>
</gpx>